Klik op de webcam foto voor een grotere versieKlik op de webcam foto voor een grotere versie
Of klik hier voor
de webcam video


Weerstation
Wilsele-Leuven:Website of another weatherstation



Het weer levert geen direct gevaar op.    Er zijn geen waarschuwingen afgegeven.

Nabijgelegen vliegvelden - METAR rapporten

   
EBBR - Vaartkom-Leuven
Gewijzigd: 19-06-2019 23:20
Grotendeels bewolkt    Wind: ZW 11 km/h
Grotendeels bewolkt
Wind: Wind: ZW 11 km/h
Temperatuur: 17°C
Dauwpunt: 16°C
Vochtigheid: 94%
Barometer: 1009 hPa
Bewolking: Grotendeels bewolkt
Zicht: meer dan 10 km
Bewolking: Gedeeltelijk bewolkt 365.8 m,
Grotendeels bewolkt 487.7 m
EBBR 192120Z 23006KT 9999 SCT012 BKN016 17/16 Q1009 NOSIG
EBAW - Antwerp
Gewijzigd: 19-06-2019 22:50
Kleine buien, Regen, Gedeeltelijk bewolkt    Wind: Westen 9 km/h
Kleine buien, Regen, Gedeeltelijk bewolkt
Wind: Wind: Westen 9 km/h
Temperatuur: 17°C
Dauwpunt: 16°C
Vochtigheid: 94%
Barometer: 1008 hPa
Bewolking: Gedeeltelijk bewolkt
Zicht: meer dan 10 km
Bewolking: Gedeeltelijk bewolkt 457.2 m
EBAW 192050Z 26005KT 9999 -SHRA SCT015 17/16 Q1008 RETS TEMPO VRB15G30KT 2500 TSRAGR BKN040CB
EBLG - Liège
Gewijzigd: 19-06-2019 22:50
Regenbuien, Regen, Gedeeltelijk bewolkt    Wind: ZW 15 km/h
Regenbuien, Regen, Gedeeltelijk bewolkt
Wind: Wind: ZW 15 km/h
Temperatuur: 17°C
Dauwpunt: 16°C
Vochtigheid: 94%
Barometer: 1010 hPa
Bewolking: Gedeeltelijk bewolkt
Zicht: 6 km
Bewolking: Gedeeltelijk bewolkt 1371.6 m
EBLG 192050Z 22008KT 6000 SHRA SCT045 17/16 Q1010 TEMPO 3000 TSRA
EBCV - Mons/Bergen
Gewijzigd: 19-06-2019 22:55
   Wind: ZW 9 km/h
Wind: Wind: ZW 9 km/h
Barometer: 1010 hPa
Zicht: meer dan 10 km
EBCV 192055Z AUTO 23005KT 9999 /// ///// Q1010 BLU
EHBK - Maastricht
Gewijzigd: 19-06-2019 22:55
Gedeeltelijk bewolkt    Wind: ZZW 17 km/h
Gedeeltelijk bewolkt
Wind: Wind: ZZW 17 km/h
Temperatuur: 18°C
Dauwpunt: 16°C
Vochtigheid: 88%
Barometer: 1008 hPa
Bewolking: Gedeeltelijk bewolkt
Zicht: meer dan 10 km
Bewolking: Gedeeltelijk bewolkt
EHBK 192055Z AUTO 20009KT 9999 NSC 18/16 Q1008
ELLX - Luxemburg
Gewijzigd: 19-06-2019 23:20
Helder    Wind: WZW 15 km/h
Helder
Wind: Wind: WZW 15 km/h
Temperatuur: 20°C
Dauwpunt: 14°C
Vochtigheid: 69%
Barometer: 1011 hPa
Zicht: meer dan 10 km
Bewolking: Helder
ELLX 192120Z 24008KT CAVOK 20/14 Q1011 NOSIG
EBOS - Oostende
Gewijzigd: 19-06-2019 23:20
Grotendeels bewolkt    Wind: Westen 11 km/h
Grotendeels bewolkt
Wind: Wind: Westen 11 km/h
Temperatuur: 16°C
Dauwpunt: 14°C
Vochtigheid: 88%
Barometer: 1009 hPa
Bewolking: Grotendeels bewolkt
Zicht: meer dan 10 km
Bewolking: Gedeeltelijk bewolkt 457.2 m,
Grotendeels bewolkt 518.2 m
EBOS 192120Z 26006KT 9999 SCT015 BKN017 16/14 Q1009 NOSIG
  

Script ontwikkeld door  Saratoga-weather.org Aangepast voor de template door  Weerstation Leuven

U vindt ons ook hier:

UK Metoffice

WeatherCloud

European Weather Network

Weather Underground

Bernelux Weather Network

AWEKAS

Citizen Weather Observer Program (CWOP)

HAMweather, WeatherForYou, PWS Weather

Apparatuur in gebruik:

Weer-station
Davis VUE

Weer-programma
Meteobridge

Weer-computer
D-Link DIR-505

Webleverancier
Robohost

Davis VUE

Meteobridge

D-Link DIR-505

Robohost